createdAt,value
2023-02-17T00:01:34.502Z,55.23
2023-02-17T00:04:01.696Z,41.43
2023-02-17T00:06:29.396Z,41.07
2023-02-17T00:08:56.712Z,37.53
2023-02-17T00:11:24.079Z,37.43
2023-02-17T00:13:53.178Z,40.37
2023-02-17T00:16:25.254Z,45.07
2023-02-17T00:18:55.895Z,44.57
2023-02-17T00:21:23.711Z,45.00
2023-02-17T00:23:50.911Z,45.30
2023-02-17T00:26:18.124Z,45.80
2023-02-17T00:28:45.427Z,39.23
2023-02-17T00:31:14.653Z,45.00
2023-02-17T00:33:41.797Z,38.43
2023-02-17T00:36:10.028Z,37.17
2023-02-17T00:38:37.184Z,39.03
2023-02-17T00:41:04.332Z,40.57
2023-02-17T00:43:31.480Z,43.70
2023-02-17T00:45:58.630Z,39.03
2023-02-17T00:48:25.743Z,43.93
2023-02-17T00:50:52.861Z,36.53
2023-02-17T00:53:20.027Z,33.27
2023-02-17T00:55:47.141Z,32.90
2023-02-17T00:58:14.343Z,33.33
2023-02-17T01:00:41.491Z,33.07
2023-02-17T01:03:08.613Z,31.37
2023-02-17T01:05:35.788Z,33.93
2023-02-17T01:08:02.912Z,31.07
2023-02-17T01:10:30.022Z,31.67
2023-02-17T01:12:57.137Z,28.40
2023-02-17T01:15:24.260Z,30.57
2023-02-17T01:17:51.374Z,28.93
2023-02-17T01:20:18.589Z,27.77
2023-02-17T01:22:45.726Z,27.30
2023-02-17T01:25:12.846Z,29.77
2023-02-17T01:27:40.140Z,30.03
2023-02-17T01:30:07.675Z,30.63
2023-02-17T01:32:34.761Z,28.53
2023-02-17T01:35:01.872Z,27.20
2023-02-17T01:37:28.997Z,28.97
2023-02-17T01:39:56.139Z,33.97
2023-02-17T01:42:23.252Z,35.23
2023-02-17T01:45:09.160Z,38.50
2023-02-17T01:47:36.244Z,35.77
2023-02-17T01:50:03.334Z,37.97
2023-02-17T01:52:30.484Z,38.50
2023-02-17T01:54:59.031Z,36.47
2023-02-17T01:57:26.667Z,36.77
2023-02-17T01:59:53.818Z,34.83
2023-02-17T02:02:20.997Z,37.17
2023-02-17T02:04:48.654Z,33.97
2023-02-17T02:07:17.844Z,35.00
2023-02-17T02:09:47.133Z,37.60
2023-02-17T02:12:33.200Z,46.50
2023-02-17T02:15:10.186Z,44.20
2023-02-17T02:17:37.326Z,44.47
2023-02-17T02:20:23.293Z,42.87
2023-02-17T02:22:50.406Z,48.63
2023-02-17T02:25:31.405Z,49.20
2023-02-17T02:28:07.654Z,44.90
2023-02-17T02:30:40.644Z,40.87
2023-02-17T02:33:07.826Z,39.70
2023-02-17T02:35:44.943Z,39.37
2023-02-17T02:38:18.069Z,35.83
2023-02-17T02:40:48.795Z,35.90
2023-02-17T02:43:15.971Z,34.70
2023-02-17T02:45:43.125Z,36.20
2023-02-17T02:48:10.330Z,33.30
2023-02-17T02:50:48.134Z,35.43
2023-02-17T02:53:21.330Z,33.80
2023-02-17T02:56:10.451Z,33.20
2023-02-17T02:58:48.875Z,31.03
2023-02-17T03:01:18.611Z,28.70
2023-02-17T03:03:45.783Z,29.73
2023-02-17T03:06:16.520Z,30.17
2023-02-17T03:08:46.442Z,33.27
2023-02-17T03:11:13.584Z,33.50
2023-02-17T03:13:41.084Z,36.00
2023-02-17T03:16:08.704Z,32.13
2023-02-17T03:18:36.383Z,33.47
2023-02-17T03:21:06.957Z,33.40
2023-02-17T03:23:34.115Z,34.23
2023-02-17T03:26:01.219Z,34.23
2023-02-17T03:28:28.444Z,32.17
2023-02-17T03:30:55.579Z,30.97
2023-02-17T03:33:22.664Z,33.50
2023-02-17T03:35:49.758Z,35.67
2023-02-17T03:38:16.907Z,35.90
2023-02-17T03:40:44.064Z,33.50
2023-02-17T03:43:11.180Z,32.60
2023-02-17T03:45:38.435Z,31.27
2023-02-17T03:48:05.599Z,32.13
2023-02-17T03:50:32.701Z,33.17
2023-02-17T03:52:59.824Z,33.77
2023-02-17T03:55:26.927Z,30.17
2023-02-17T03:57:54.047Z,34.00
2023-02-17T04:00:21.833Z,32.73
2023-02-17T04:02:48.923Z,32.30
2023-02-17T04:05:16.088Z,34.07
2023-02-17T04:07:43.327Z,36.27
2023-02-17T04:10:10.591Z,36.90
2023-02-17T04:12:37.800Z,35.73
2023-02-17T04:15:05.021Z,39.13
2023-02-17T04:17:32.128Z,36.43
2023-02-17T04:19:59.231Z,42.27
2023-02-17T04:22:26.385Z,42.00
2023-02-17T04:24:53.485Z,34.50
2023-02-17T04:27:20.615Z,57.77
2023-02-17T04:29:47.735Z,49.43
2023-02-17T04:32:14.869Z,41.60
2023-02-17T04:34:41.959Z,42.47
2023-02-17T04:37:09.093Z,39.30
2023-02-17T04:39:36.195Z,47.50
2023-02-17T04:42:03.320Z,58.40
2023-02-17T04:44:30.440Z,71.30
2023-02-17T04:46:57.541Z,94.27
2023-02-17T04:49:24.665Z,70.37
2023-02-17T04:51:51.882Z,57.43
2023-02-17T04:54:19.007Z,59.83
2023-02-17T04:56:46.096Z,63.20
2023-02-17T04:59:13.247Z,59.77
2023-02-17T05:01:40.377Z,56.30
2023-02-17T05:04:07.491Z,54.47
2023-02-17T05:06:34.638Z,52.47
2023-02-17T05:09:01.789Z,57.43
2023-02-17T05:11:28.906Z,52.73
2023-02-17T05:13:56.035Z,71.00
2023-02-17T05:16:23.210Z,83.67
2023-02-17T05:18:50.433Z,121.07
2023-02-17T05:21:17.617Z,118.77
2023-02-17T05:23:44.703Z,87.83
2023-02-17T05:26:11.931Z,79.03
2023-02-17T05:28:39.161Z,66.83
2023-02-17T05:31:06.760Z,43.30
2023-02-17T05:33:34.023Z,61.47
2023-02-17T05:36:05.245Z,50.13
2023-02-17T05:38:32.575Z,136.70
2023-02-17T05:40:59.667Z,165.57
2023-02-17T05:43:26.815Z,128.27
2023-02-17T05:45:53.978Z,100.00
2023-02-17T05:48:21.151Z,171.83
2023-02-17T05:50:48.407Z,230.03
2023-02-17T05:53:15.539Z,245.77
2023-02-17T05:55:42.832Z,268.13
2023-02-17T05:58:09.974Z,220.93
2023-02-17T06:00:37.264Z,238.50
2023-02-17T06:03:04.437Z,206.87
2023-02-17T06:08:16.333Z,149.67
2023-02-17T06:10:43.519Z,136.33
2023-02-17T06:13:10.679Z,108.50
2023-02-17T06:15:37.946Z,89.00
2023-02-17T06:18:05.267Z,80.93
2023-02-17T06:20:32.414Z,82.67
2023-02-17T06:22:59.534Z,83.47
2023-02-17T06:25:26.701Z,90.23
2023-02-17T06:27:54.154Z,68.13
2023-02-17T06:30:21.552Z,79.43
2023-02-17T06:32:48.728Z,107.97
2023-02-17T06:35:16.053Z,124.23
2023-02-17T06:37:43.349Z,102.57
2023-02-17T06:40:10.858Z,52.83
2023-02-17T06:42:37.989Z,53.27
2023-02-17T06:45:06.164Z,43.40
2023-02-17T06:47:33.711Z,44.10
2023-02-17T06:50:00.836Z,51.87
2023-02-17T06:52:27.982Z,49.67
2023-02-17T06:54:55.139Z,50.40
2023-02-17T06:57:22.397Z,57.77
2023-02-17T06:59:49.516Z,64.80
2023-02-17T07:02:16.806Z,62.80
2023-02-17T07:04:43.979Z,62.77
2023-02-17T07:07:11.252Z,53.17
2023-02-17T07:09:38.832Z,48.63
2023-02-17T07:12:06.248Z,57.57
2023-02-17T07:14:35.028Z,51.17
2023-02-17T07:17:03.159Z,55.83
2023-02-17T07:19:31.737Z,61.80
2023-02-17T07:22:00.556Z,71.60
2023-02-17T07:24:29.059Z,61.30
2023-02-17T07:26:56.284Z,45.30
2023-02-17T07:29:23.649Z,36.20
2023-02-17T07:31:50.884Z,36.43
2023-02-17T07:34:18.084Z,36.03
2023-02-17T07:36:45.204Z,31.60
2023-02-17T07:39:12.376Z,30.60
2023-02-17T07:41:39.491Z,28.57
2023-02-17T07:44:06.597Z,27.17
2023-02-17T07:46:33.732Z,27.03
2023-02-17T07:49:00.836Z,23.30
2023-02-17T07:51:28.000Z,22.50
2023-02-17T07:53:55.147Z,21.27
2023-02-17T07:56:22.708Z,23.70
2023-02-17T07:58:49.982Z,28.00
2023-02-17T08:01:21.256Z,20.40
2023-02-17T08:03:48.612Z,14.97
2023-02-17T08:06:17.028Z,13.63
2023-02-17T08:09:03.118Z,14.18
2023-02-17T08:11:49.958Z,14.25
2023-02-17T08:14:17.236Z,15.15
2023-02-17T08:16:44.470Z,13.68
2023-02-17T08:19:11.653Z,13.48
2023-02-17T08:21:38.788Z,14.27
2023-02-17T08:24:05.987Z,13.75
2023-02-17T08:26:33.116Z,13.90
2023-02-17T08:29:00.296Z,13.93
2023-02-17T08:31:28.586Z,14.02
2023-02-17T08:33:55.916Z,14.23
2023-02-17T08:36:26.201Z,13.50
2023-02-17T08:38:53.663Z,13.15
2023-02-17T08:41:23.862Z,12.57
2023-02-17T08:43:51.247Z,12.35
2023-02-17T08:46:18.854Z,12.85
2023-02-17T08:48:46.008Z,12.88
2023-02-17T08:51:14.362Z,13.75
2023-02-17T08:53:41.567Z,10.82
2023-02-17T08:56:08.994Z,10.90
2023-02-17T08:58:36.467Z,9.52
2023-02-17T09:01:03.795Z,9.60
2023-02-17T09:03:30.998Z,8.68
2023-02-17T09:05:58.229Z,8.70
2023-02-17T09:08:25.556Z,9.57
2023-02-17T09:10:52.798Z,8.80
2023-02-17T09:13:20.125Z,8.98
2023-02-17T09:15:47.314Z,8.77
2023-02-17T09:18:14.505Z,8.18
2023-02-17T09:20:41.760Z,8.77
2023-02-17T09:23:08.902Z,7.38
2023-02-17T09:25:36.040Z,8.00
2023-02-17T09:28:03.198Z,8.32
2023-02-17T09:30:30.982Z,7.63
2023-02-17T09:32:58.743Z,8.82
2023-02-17T09:35:25.921Z,9.75
2023-02-17T09:37:53.099Z,10.25
2023-02-17T09:40:21.699Z,9.13
2023-02-17T09:42:48.883Z,9.88
2023-02-17T09:45:20.441Z,11.05
2023-02-17T09:47:48.755Z,12.32
2023-02-17T09:50:36.592Z,10.45
2023-02-17T09:53:30.089Z,13.18
2023-02-17T09:55:57.717Z,13.45
2023-02-17T09:58:26.824Z,13.60
2023-02-17T10:00:55.367Z,11.75
2023-02-17T10:03:41.508Z,9.52
2023-02-17T10:06:16.327Z,9.43
2023-02-17T10:08:46.690Z,11.10
2023-02-17T10:11:31.084Z,11.02
2023-02-17T10:14:00.015Z,9.38
2023-02-17T10:16:32.058Z,9.48
2023-02-17T10:19:05.511Z,8.98
2023-02-17T10:21:33.890Z,8.82
2023-02-17T10:24:01.008Z,10.80
2023-02-17T10:26:30.946Z,10.02
2023-02-17T10:29:07.866Z,11.30
2023-02-17T10:31:38.409Z,10.77
2023-02-17T10:34:06.259Z,14.27
2023-02-17T10:36:39.663Z,12.15
2023-02-17T10:39:13.677Z,10.02
2023-02-17T10:41:40.859Z,10.90
2023-02-17T10:44:09.638Z,9.63
2023-02-17T10:46:36.856Z,11.52
2023-02-17T10:49:06.311Z,10.98
2023-02-17T10:51:34.368Z,10.73
2023-02-17T10:54:04.181Z,9.48
2023-02-17T10:56:41.039Z,9.55
2023-02-17T10:59:09.551Z,9.68
2023-02-17T11:01:37.819Z,9.07
2023-02-17T11:04:06.343Z,7.97
2023-02-17T11:06:33.717Z,7.60
2023-02-17T11:09:09.385Z,7.05
2023-02-17T11:11:36.810Z,6.72
2023-02-17T11:14:09.851Z,7.68
2023-02-17T11:16:40.246Z,7.32
2023-02-17T11:19:07.927Z,6.93
2023-02-17T11:21:36.034Z,7.88
2023-02-17T11:24:06.752Z,7.07
2023-02-17T11:26:35.132Z,8.23
2023-02-17T11:29:33.189Z,7.25
2023-02-17T11:32:04.840Z,18.38
2023-02-17T11:34:36.175Z,5.90
2023-02-17T11:37:09.184Z,13.20
2023-02-17T11:39:39.592Z,12.98
2023-02-17T11:42:16.866Z,6.50
2023-02-17T11:44:44.146Z,6.78
2023-02-17T11:47:14.276Z,6.60
2023-02-17T11:49:47.259Z,6.28
2023-02-17T11:52:26.386Z,8.20
2023-02-17T11:55:22.642Z,6.22
2023-02-17T11:58:01.357Z,6.07
2023-02-17T12:00:33.387Z,5.25
2023-02-17T12:03:13.427Z,5.50
2023-02-17T12:05:59.433Z,5.47
2023-02-17T12:08:27.374Z,6.00
2023-02-17T12:11:18.510Z,5.43
2023-02-17T12:13:51.695Z,7.15
2023-02-17T12:16:30.883Z,6.90
2023-02-17T12:19:02.962Z,4.35
2023-02-17T12:21:34.314Z,5.78
2023-02-17T12:24:20.354Z,5.70
2023-02-17T12:27:01.531Z,5.03
2023-02-17T12:29:41.381Z,3.88
2023-02-17T12:32:31.641Z,4.20
2023-02-17T12:35:00.428Z,3.20
2023-02-17T12:37:32.151Z,3.40
2023-02-17T12:40:03.611Z,3.90
2023-02-17T12:42:37.786Z,3.90
2023-02-17T12:45:06.205Z,3.30
2023-02-17T12:47:36.287Z,4.18
2023-02-17T12:50:07.581Z,3.90
2023-02-17T12:52:37.463Z,3.15
2023-02-17T12:55:05.984Z,3.17
2023-02-17T12:57:39.402Z,3.30
2023-02-17T13:00:20.886Z,4.68
2023-02-17T13:02:48.287Z,3.83
2023-02-17T13:05:23.241Z,4.32
2023-02-17T13:08:10.667Z,4.53
2023-02-17T13:10:39.421Z,4.38
2023-02-17T13:13:07.903Z,4.43
2023-02-17T13:15:36.417Z,4.15
2023-02-17T13:18:12.988Z,4.40
2023-02-17T13:20:45.865Z,4.32
2023-02-17T13:23:14.050Z,5.05
2023-02-17T13:25:41.280Z,4.47
2023-02-17T13:28:18.310Z,4.30
2023-02-17T13:30:45.821Z,4.43
2023-02-17T13:33:22.248Z,4.47
2023-02-17T13:35:49.492Z,8.50
2023-02-17T13:38:29.930Z,5.18
2023-02-17T13:41:00.838Z,9.73
2023-02-17T13:43:28.910Z,5.03
2023-02-17T13:46:02.937Z,8.43
2023-02-17T13:48:31.007Z,7.93
2023-02-17T13:50:58.837Z,6.10
2023-02-17T13:53:27.289Z,6.00
2023-02-17T13:55:55.086Z,5.47
2023-02-17T13:58:23.157Z,5.78
2023-02-17T14:00:50.381Z,5.20
2023-02-17T14:03:20.540Z,4.50
2023-02-17T14:05:48.038Z,4.95
2023-02-17T14:08:15.198Z,4.43
2023-02-17T14:10:42.348Z,4.75
2023-02-17T14:13:12.525Z,4.20
2023-02-17T14:15:49.263Z,4.68
2023-02-17T14:18:17.216Z,3.72
2023-02-17T14:20:44.320Z,3.67
2023-02-17T14:23:12.483Z,3.17
2023-02-17T14:25:40.929Z,4.07
2023-02-17T14:28:20.933Z,3.60
2023-02-17T14:30:48.320Z,3.63
2023-02-17T14:33:16.191Z,3.78
2023-02-17T14:35:52.441Z,6.85
2023-02-17T14:38:32.029Z,3.70
2023-02-17T14:41:01.058Z,3.38
2023-02-17T14:43:28.195Z,4.10
2023-02-17T14:45:55.318Z,3.28
2023-02-17T14:48:22.538Z,4.88
2023-02-17T14:50:49.710Z,3.20
2023-02-17T14:53:29.688Z,2.92
2023-02-17T14:55:59.847Z,3.60
2023-02-17T14:58:27.201Z,6.20
2023-02-17T15:00:54.402Z,4.43
2023-02-17T15:03:21.572Z,3.95
2023-02-17T15:05:48.771Z,3.40
2023-02-17T15:08:16.718Z,5.93
2023-02-17T15:10:44.035Z,5.97
2023-02-17T15:13:13.137Z,4.65
2023-02-17T15:15:44.471Z,3.15
2023-02-17T15:18:12.304Z,2.72
2023-02-17T15:20:39.422Z,28.45
2023-02-17T15:23:10.118Z,13.23
2023-02-17T15:25:37.217Z,28.73
2023-02-17T15:28:04.358Z,6.30
2023-02-17T15:30:31.593Z,6.10
2023-02-17T15:32:58.765Z,5.18
2023-02-17T15:35:26.826Z,11.68
2023-02-17T15:37:54.108Z,9.25
2023-02-17T15:40:22.403Z,9.18
2023-02-17T15:43:03.394Z,11.95
2023-02-17T15:45:30.947Z,8.30
2023-02-17T15:48:07.676Z,16.83
2023-02-17T15:50:34.840Z,7.15
2023-02-17T15:53:02.050Z,8.73
2023-02-17T15:55:29.408Z,13.45
2023-02-17T15:57:59.914Z,16.75
2023-02-17T16:00:28.518Z,44.38
2023-02-17T16:02:55.767Z,15.77
2023-02-17T16:05:24.011Z,14.43
2023-02-17T16:07:51.195Z,28.13
2023-02-17T16:10:19.457Z,26.30
2023-02-17T16:12:46.938Z,24.10
2023-02-17T16:15:17.823Z,37.50
2023-02-17T16:17:45.046Z,6.50
2023-02-17T16:20:16.641Z,19.42
2023-02-17T16:22:44.349Z,15.35
2023-02-17T16:25:11.639Z,9.73
2023-02-17T16:27:38.804Z,13.45
2023-02-17T16:30:26.198Z,5.72
2023-02-17T16:32:53.743Z,6.78
2023-02-17T16:35:22.129Z,7.53
2023-02-17T16:37:53.338Z,9.60
2023-02-17T16:40:20.594Z,8.18
2023-02-17T16:42:47.710Z,9.63
2023-02-17T16:45:15.649Z,6.18
2023-02-17T16:47:44.575Z,7.45
2023-02-17T16:50:12.252Z,6.00
2023-02-17T16:52:39.441Z,8.65
2023-02-17T16:55:06.845Z,8.00
2023-02-17T16:57:34.877Z,7.43
2023-02-17T17:00:02.049Z,5.50
2023-02-17T17:02:29.278Z,10.43
2023-02-17T17:04:56.422Z,11.35
2023-02-17T17:07:23.577Z,12.93
2023-02-17T17:10:14.869Z,13.57
2023-02-17T17:12:37.784Z,8.75
2023-02-17T17:15:05.016Z,8.13
2023-02-17T17:17:32.549Z,4.97
2023-02-17T17:19:59.696Z,9.68
2023-02-17T17:22:26.827Z,8.35
2023-02-17T17:24:53.954Z,9.55
2023-02-17T17:27:21.102Z,7.18
2023-02-17T17:29:48.222Z,13.50
2023-02-17T17:32:15.520Z,5.85
2023-02-17T17:34:42.747Z,5.45
2023-02-17T17:37:10.398Z,3.70
2023-02-17T17:39:37.630Z,5.97
2023-02-17T17:42:04.941Z,4.50
2023-02-17T17:44:33.253Z,5.70
2023-02-17T17:47:00.358Z,7.63
2023-02-17T17:49:27.496Z,8.68
2023-02-17T17:51:54.602Z,4.50
2023-02-17T17:54:21.745Z,7.68
2023-02-17T17:56:48.907Z,9.63
2023-02-17T17:59:16.001Z,3.92
2023-02-17T18:01:45.631Z,9.07
2023-02-17T18:04:13.114Z,4.10
2023-02-17T18:06:40.659Z,5.20
2023-02-17T18:09:08.192Z,13.75
2023-02-17T18:11:35.705Z,6.25
2023-02-17T18:14:03.531Z,5.55
2023-02-17T18:16:32.225Z,3.63
2023-02-17T18:19:01.065Z,12.93
2023-02-17T18:21:28.222Z,3.58
2023-02-17T18:23:55.460Z,26.05
2023-02-17T18:26:22.759Z,7.30
2023-02-17T18:28:50.028Z,10.80
2023-02-17T18:31:19.280Z,3.60
2023-02-17T18:33:49.270Z,3.47
2023-02-17T18:36:17.731Z,5.85
2023-02-17T18:38:45.083Z,15.55
2023-02-17T18:41:22.228Z,3.88
2023-02-17T18:43:49.423Z,8.13
2023-02-17T18:46:16.689Z,6.35
2023-02-17T18:48:44.025Z,5.60
2023-02-17T18:51:11.551Z,9.68
2023-02-17T18:53:38.783Z,10.05
2023-02-17T18:56:10.548Z,7.80
2023-02-17T18:58:37.644Z,9.00
2023-02-17T19:01:04.862Z,9.27
2023-02-17T19:03:32.023Z,4.53
2023-02-17T19:05:59.135Z,7.10
2023-02-17T19:08:26.341Z,4.90
2023-02-17T19:10:53.733Z,7.40
2023-02-17T19:13:20.931Z,6.78
2023-02-17T19:15:48.062Z,6.88
2023-02-17T19:18:15.392Z,6.20
2023-02-17T19:20:44.076Z,10.85
2023-02-17T19:23:11.237Z,7.20
2023-02-17T19:25:38.974Z,7.22
2023-02-17T19:28:06.170Z,4.55
2023-02-17T19:30:33.384Z,7.20
2023-02-17T19:33:00.623Z,12.77
2023-02-17T19:35:27.951Z,5.90
2023-02-17T19:37:55.053Z,10.57
2023-02-17T19:40:22.328Z,12.77
2023-02-17T19:42:49.541Z,10.57
2023-02-17T19:45:16.853Z,7.53
2023-02-17T19:47:44.088Z,14.68
2023-02-17T19:50:11.317Z,14.65
2023-02-17T19:52:38.597Z,12.52
2023-02-17T19:55:07.429Z,11.13
2023-02-17T19:57:34.667Z,12.73
2023-02-17T20:00:01.865Z,9.43
2023-02-17T20:02:29.106Z,10.88
2023-02-17T20:04:56.319Z,8.70
2023-02-17T20:07:24.023Z,9.98
2023-02-17T20:09:51.280Z,9.80
2023-02-17T20:12:18.537Z,6.05
2023-02-17T20:14:45.895Z,8.43
2023-02-17T20:17:13.168Z,8.02
2023-02-17T20:19:40.287Z,7.72
2023-02-17T20:22:07.883Z,7.18
2023-02-17T20:24:35.513Z,8.50
2023-02-17T20:27:02.657Z,11.85
2023-02-17T20:29:29.860Z,22.65
2023-02-17T20:31:57.196Z,16.40
2023-02-17T20:34:27.433Z,15.52
2023-02-17T20:36:55.138Z,9.65
2023-02-17T20:39:23.053Z,10.38
2023-02-17T20:41:50.224Z,10.10
2023-02-17T20:44:18.120Z,10.88
2023-02-17T20:46:45.801Z,11.90
2023-02-17T20:49:13.776Z,16.40
2023-02-17T20:51:40.930Z,10.23
2023-02-17T20:54:08.258Z,17.98
2023-02-17T20:56:36.105Z,42.65
2023-02-17T20:59:04.689Z,18.35
2023-02-17T21:01:32.205Z,11.57
2023-02-17T21:03:59.368Z,12.48
2023-02-17T21:06:27.613Z,8.20
2023-02-17T21:08:55.672Z,8.60
2023-02-17T21:11:22.806Z,9.00
2023-02-17T21:13:50.099Z,19.95
2023-02-17T21:16:18.053Z,9.85
2023-02-17T21:18:47.146Z,23.30
2023-02-17T21:21:14.633Z,18.80
2023-02-17T21:23:41.792Z,43.53
2023-02-17T21:26:09.735Z,12.25
2023-02-17T21:28:36.930Z,22.48
2023-02-17T21:31:04.440Z,12.20
2023-02-17T21:33:31.604Z,20.65
2023-02-17T21:35:58.736Z,10.15
2023-02-17T21:38:25.860Z,10.57
2023-02-17T21:40:52.990Z,8.90
2023-02-17T21:43:38.895Z,8.80
2023-02-17T21:46:09.422Z,11.05
2023-02-17T21:48:37.877Z,11.30
2023-02-17T21:51:08.583Z,8.15
2023-02-17T21:53:35.934Z,10.73
2023-02-17T21:56:03.110Z,10.07
2023-02-17T21:58:30.275Z,9.85
2023-02-17T22:00:57.380Z,8.70
2023-02-17T22:03:24.493Z,7.45
2023-02-17T22:05:51.691Z,9.18
2023-02-17T22:08:18.840Z,6.82
2023-02-17T22:10:45.979Z,8.23
2023-02-17T22:13:13.095Z,10.38
2023-02-17T22:15:40.295Z,8.75
2023-02-17T22:18:07.438Z,7.15
2023-02-17T22:20:35.675Z,7.53
2023-02-17T22:23:02.820Z,7.65
2023-02-17T22:25:31.197Z,9.32
2023-02-17T22:27:58.342Z,6.70
2023-02-17T22:30:25.587Z,7.38
2023-02-17T22:32:52.717Z,7.65
2023-02-17T22:35:20.986Z,7.70
2023-02-17T22:37:48.120Z,7.28
2023-02-17T22:40:15.261Z,6.35
2023-02-17T22:42:42.382Z,7.22
2023-02-17T22:45:09.602Z,7.38
2023-02-17T22:47:36.697Z,8.27
2023-02-17T22:50:04.057Z,7.25
2023-02-17T22:52:31.173Z,7.28
2023-02-17T22:54:58.354Z,6.63
2023-02-17T22:57:25.499Z,6.50
2023-02-17T22:59:52.673Z,6.30
2023-02-17T23:02:19.769Z,5.78
2023-02-17T23:04:47.954Z,6.97
2023-02-17T23:07:15.154Z,5.85
2023-02-17T23:09:42.266Z,6.03
2023-02-17T23:12:09.394Z,4.38
2023-02-17T23:14:37.540Z,5.80
2023-02-17T23:17:05.748Z,4.38
2023-02-17T23:19:32.933Z,4.93
2023-02-17T23:22:01.325Z,5.78
2023-02-17T23:24:28.605Z,4.72
2023-02-17T23:26:56.207Z,5.55
2023-02-17T23:29:23.399Z,5.40
2023-02-17T23:31:50.604Z,4.63
2023-02-17T23:34:17.768Z,8.13
2023-02-17T23:36:45.274Z,5.05
2023-02-17T23:39:12.432Z,4.70
2023-02-17T23:41:39.605Z,5.78
2023-02-17T23:44:07.678Z,5.75
2023-02-17T23:46:35.104Z,6.30
2023-02-17T23:49:02.321Z,5.75
2023-02-17T23:51:29.478Z,7.00
2023-02-17T23:53:56.582Z,11.68
2023-02-17T23:56:28.030Z,14.57
2023-02-17T23:58:55.141Z,5.40
